Time;durP1;ratioP1;P1;durP2;ratioP2;P2;SDS_P1;SDS_P2;PMS_P1;PMS_P2;Temp;Humidity;BMP_temperature;BMP_pressure;BME280_temperature;BME280_humidity;BME280_pressure;Samples;Min_cycle;Max_cycle;Signal;HPM_P1;HPM_P2
2022/11/14 00:02:26;;;;;;;8.27;2.00;;;;;;;;;;5029917;28;20061;-74
2022/11/14 00:04:51;;;;;;;8.85;2.20;;;;;;;;;;5029539;28;20056;-73
2022/11/14 00:07:17;;;;;;;7.97;1.98;;;;;;;;;;5029912;28;20025;-72
2022/11/14 00:09:42;;;;;;;8.70;2.40;;;;;;;;;;5029981;28;20402;-72
2022/11/14 00:12:08;;;;;;;8.90;2.20;;;;;;;;;;5030293;28;20113;-72
2022/11/14 00:14:34;;;;;;;9.75;2.40;;;;;;;;;;5029898;28;20029;-72
2022/11/14 00:17:00;;;;;;;6.95;2.03;;;;;;;;;;5029588;28;20021;-73
2022/11/14 00:19:25;;;;;;;7.18;2.10;;;;;;;;;;5030018;28;20029;-72
2022/11/14 00:21:52;;;;;;;7.28;2.03;;;;;;;;;;5029675;28;20025;-72
2022/11/14 00:24:18;;;;;;;10.13;1.92;;;;;;;;;;5029715;28;20017;-72
2022/11/14 00:26:43;;;;;;;8.00;1.88;;;;;;;;;;5029502;28;20044;-72
2022/11/14 00:29:13;;;;;;;9.32;2.00;;;;;;;;;;5029831;28;20080;-73
2022/11/14 00:31:38;;;;;;;7.47;2.30;;;;;;;;;;5029724;28;20216;-73
2022/11/14 00:34:04;;;;;;;5.53;1.85;;;;;;;;;;5029674;28;20119;-72
2022/11/14 00:36:29;;;;;;;6.78;1.83;;;;;;;;;;5029477;28;20032;-72
2022/11/14 00:38:55;;;;;;;8.10;2.08;;;;;;;;;;5012003;28;20112;-73
2022/11/14 00:41:20;;;;;;;6.65;1.85;;;;;;;;;;5029363;28;20021;-73
2022/11/14 00:43:46;;;;;;;7.95;1.75;;;;;;;;;;5029697;28;20021;-72
2022/11/14 00:46:11;;;;;;;4.32;1.58;;;;;;;;;;5029424;28;20091;-73
2022/11/14 00:48:37;;;;;;;4.50;1.65;;;;;;;;;;5029680;28;20497;-73
2022/11/14 00:51:02;;;;;;;14.27;2.22;;;;;;;;;;5029557;28;20037;-73
2022/11/14 00:53:28;;;;;;;9.07;1.80;;;;;;;;;;5029937;28;20022;-73
2022/11/14 00:55:53;;;;;;;7.13;1.75;;;;;;;;;;5029283;28;20036;-73
2022/11/14 00:58:18;;;;;;;6.57;1.80;;;;;;;;;;5029352;28;20030;-73
2022/11/14 01:00:44;;;;;;;10.07;1.88;;;;;;;;;;5029310;28;20029;-73
2022/11/14 01:03:09;;;;;;;8.82;2.25;;;;;;;;;;5029704;28;20025;-73
2022/11/14 01:05:41;;;;;;;10.73;1.90;;;;;;;;;;5029003;28;20110;-72
2022/11/14 01:08:06;;;;;;;8.45;2.00;;;;;;;;;;5029936;28;20022;-73
2022/11/14 01:10:31;;;;;;;9.50;1.80;;;;;;;;;;5015281;28;20079;-73
2022/11/14 01:12:57;;;;;;;7.78;1.90;;;;;;;;;;5014854;28;20013;-73
2022/11/14 01:15:22;;;;;;;7.93;2.00;;;;;;;;;;5032638;28;20488;-73
2022/11/14 01:17:47;;;;;;;5.75;1.80;;;;;;;;;;5015005;28;20022;-72
2022/11/14 01:20:14;;;;;;;9.40;1.63;;;;;;;;;;5032996;28;20026;-71
2022/11/14 01:22:39;;;;;;;9.63;1.98;;;;;;;;;;5032793;28;20026;-72
2022/11/14 01:25:05;;;;;;;8.95;1.70;;;;;;;;;;5032549;28;20033;-72
2022/11/14 01:27:31;;;;;;;8.50;1.80;;;;;;;;;;5032411;28;20103;-73
2022/11/14 01:29:56;;;;;;;8.60;2.00;;;;;;;;;;5014922;28;20028;-73
2022/11/14 01:32:21;;;;;;;10.10;2.30;;;;;;;;;;5032306;28;20207;-72
2022/11/14 01:34:47;;;;;;;7.90;1.88;;;;;;;;;;5032364;28;20132;-73
2022/11/14 01:37:12;;;;;;;9.23;1.70;;;;;;;;;;5032374;28;20029;-73
2022/11/14 01:39:38;;;;;;;7.93;2.00;;;;;;;;;;5032670;28;20108;-73
2022/11/14 01:42:03;;;;;;;7.72;1.77;;;;;;;;;;5014542;28;20119;-73
2022/11/14 01:44:44;;;;;;;11.13;2.20;;;;;;;;;;5014676;28;20563;-72
2022/11/14 01:47:11;;;;;;;10.85;2.17;;;;;;;;;;5014173;28;20409;-72
2022/11/14 01:49:44;;;;;;;17.27;2.38;;;;;;;;;;5032404;28;20567;-72
2022/11/14 01:52:12;;;;;;;7.07;1.67;;;;;;;;;;5013989;28;20520;-73
2022/11/14 01:54:44;;;;;;;10.82;1.85;;;;;;;;;;5031998;28;20082;-72
2022/11/14 01:57:11;;;;;;;8.38;1.85;;;;;;;;;;5031956;28;20037;-73
2022/11/14 01:59:41;;;;;;;8.77;1.77;;;;;;;;;;5032221;28;20026;-72
2022/11/14 02:02:15;;;;;;;11.70;2.03;;;;;;;;;;5014195;28;20030;-73
2022/11/14 02:04:44;;;;;;;8.20;2.00;;;;;;;;;;5031696;28;20095;-72
2022/11/14 02:07:10;;;;;;;5.70;1.67;;;;;;;;;;5031664;28;20063;-73
2022/11/14 02:09:38;;;;;;;12.50;2.05;;;;;;;;;;5031892;28;20029;-73
2022/11/14 02:12:07;;;;;;;8.68;2.00;;;;;;;;;;5031423;28;20033;-73
2022/11/14 02:14:34;;;;;;;7.88;2.28;;;;;;;;;;5031976;28;20112;-73
2022/11/14 02:16:59;;;;;;;9.73;1.77;;;;;;;;;;5031554;28;20637;-73
2022/11/14 02:19:25;;;;;;;8.70;2.00;;;;;;;;;;5031818;28;20504;-73
2022/11/14 02:21:50;;;;;;;12.07;2.17;;;;;;;;;;5031737;28;20021;-73
2022/11/14 02:24:15;;;;;;;9.50;2.05;;;;;;;;;;5031927;28;20037;-72
2022/11/14 02:26:41;;;;;;;6.30;1.83;;;;;;;;;;5013258;28;20171;-73
2022/11/14 02:29:09;;;;;;;6.90;1.75;;;;;;;;;;5031249;28;20377;-72
2022/11/14 02:31:35;;;;;;;9.95;1.95;;;;;;;;;;5031454;28;20021;-73
2022/11/14 02:34:01;;;;;;;7.72;1.85;;;;;;;;;;5031456;28;20507;-73
2022/11/14 02:36:27;;;;;;;8.20;2.03;;;;;;;;;;5031283;28;20075;-73
2022/11/14 02:38:52;;;;;;;8.93;2.00;;;;;;;;;;5031364;28;20033;-73
2022/11/14 02:41:18;;;;;;;7.50;1.83;;;;;;;;;;5031372;28;20516;-73
2022/11/14 02:43:43;;;;;;;7.78;2.30;;;;;;;;;;5030972;28;20500;-73
2022/11/14 02:46:09;;;;;;;9.55;2.30;;;;;;;;;;5031112;28;20057;-73
2022/11/14 02:48:34;;;;;;;7.95;2.00;;;;;;;;;;5031067;28;20021;-72
2022/11/14 02:50:59;;;;;;;7.00;2.10;;;;;;;;;;5013257;28;20029;-73
2022/11/14 02:53:25;;;;;;;11.43;2.00;;;;;;;;;;5030877;28;20021;-73
2022/11/14 02:55:50;;;;;;;6.82;1.80;;;;;;;;;;5031038;28;20109;-73
2022/11/14 02:58:16;;;;;;;13.65;2.15;;;;;;;;;;5030768;28;20055;-73
2022/11/14 03:00:41;;;;;;;8.10;1.83;;;;;;;;;;5031019;28;20359;-74
2022/11/14 03:03:07;;;;;;;10.50;2.17;;;;;;;;;;5030778;28;20026;-73
2022/11/14 03:05:32;;;;;;;10.98;2.28;;;;;;;;;;5030312;28;20394;-74
2022/11/14 03:07:57;;;;;;;9.77;2.30;;;;;;;;;;5030679;28;20083;-73
2022/11/14 03:10:23;;;;;;;8.18;1.90;;;;;;;;;;5030667;28;20052;-73
2022/11/14 03:12:56;;;;;;;8.35;2.20;;;;;;;;;;5030421;28;20115;-73
2022/11/14 03:15:22;;;;;;;6.93;2.22;;;;;;;;;;5030459;28;20041;-73
2022/11/14 03:17:49;;;;;;;10.07;2.20;;;;;;;;;;5030588;28;20033;-73
2022/11/14 03:20:14;;;;;;;9.80;2.10;;;;;;;;;;5030627;28;20026;-73
2022/11/14 03:22:39;;;;;;;14.57;2.30;;;;;;;;;;5030401;28;20385;-73
2022/11/14 03:25:05;;;;;;;7.72;2.22;;;;;;;;;;5030130;28;20052;-73
2022/11/14 03:27:30;;;;;;;8.60;2.30;;;;;;;;;;5030067;28;20037;-73
2022/11/14 03:29:56;;;;;;;13.60;2.20;;;;;;;;;;5030463;28;20021;-73
2022/11/14 03:32:21;;;;;;;9.80;2.60;;;;;;;;;;5029984;28;20114;-73
2022/11/14 03:34:47;;;;;;;12.63;2.35;;;;;;;;;;5030564;28;20029;-73
2022/11/14 03:37:12;;;;;;;12.93;2.45;;;;;;;;;;5030434;28;20499;-73
2022/11/14 03:39:38;;;;;;;10.13;2.38;;;;;;;;;;5030283;28;20667;-73
2022/11/14 03:42:03;;;;;;;8.70;2.15;;;;;;;;;;5030035;28;20029;-73
2022/11/14 03:44:29;;;;;;;12.00;2.72;;;;;;;;;;5030147;28;20025;-73
2022/11/14 03:46:54;;;;;;;8.95;2.63;;;;;;;;;;5030159;28;20539;-72
2022/11/14 03:49:19;;;;;;;12.98;2.70;;;;;;;;;;5029977;28;20473;-73
2022/11/14 03:51:45;;;;;;;8.68;2.33;;;;;;;;;;5030261;28;20025;-73
2022/11/14 03:54:10;;;;;;;10.23;2.40;;;;;;;;;;5030007;28;20552;-72
2022/11/14 03:56:35;;;;;;;7.65;2.38;;;;;;;;;;5030236;28;20033;-73
2022/11/14 03:59:01;;;;;;;11.60;2.75;;;;;;;;;;5029869;28;20017;-75
2022/11/14 04:01:28;;;;;;;10.48;2.47;;;;;;;;;;5030044;28;20109;-74
2022/11/14 04:03:53;;;;;;;9.60;2.90;;;;;;;;;;5029734;28;20037;-74
2022/11/14 04:06:18;;;;;;;7.28;2.50;;;;;;;;;;5011799;28;20053;-74
2022/11/14 04:08:44;;;;;;;13.00;2.80;;;;;;;;;;5029978;28;20477;-74
2022/11/14 04:11:09;;;;;;;10.13;2.75;;;;;;;;;;5030146;28;20117;-74
2022/11/14 04:13:35;;;;;;;8.93;2.78;;;;;;;;;;5029636;28;20104;-74
2022/11/14 04:16:00;;;;;;;13.05;3.28;;;;;;;;;;5029859;28;20496;-74
2022/11/14 04:18:26;;;;;;;13.05;2.53;;;;;;;;;;5029698;28;20104;-74
2022/11/14 04:20:52;;;;;;;10.02;2.70;;;;;;;;;;5029866;28;20033;-74
2022/11/14 04:23:17;;;;;;;12.35;2.92;;;;;;;;;;5011912;28;20113;-74
2022/11/14 04:25:44;;;;;;;10.25;2.75;;;;;;;;;;5029529;28;20033;-74
2022/11/14 04:28:09;;;;;;;14.23;2.85;;;;;;;;;;5029610;28;20026;-73
2022/11/14 04:30:34;;;;;;;14.90;2.90;;;;;;;;;;5029830;28;20017;-73
2022/11/14 04:33:00;;;;;;;10.50;2.95;;;;;;;;;;5029777;28;20021;-73
2022/11/14 04:35:25;;;;;;;15.57;2.85;;;;;;;;;;5029752;28;20025;-73
2022/11/14 04:37:51;;;;;;;16.33;3.03;;;;;;;;;;5029563;28;20021;-72
2022/11/14 04:40:16;;;;;;;12.88;3.30;;;;;;;;;;5029347;28;20022;-73
2022/11/14 04:42:41;;;;;;;16.08;3.30;;;;;;;;;;5029515;28;20022;-72
2022/11/14 04:45:07;;;;;;;9.88;3.03;;;;;;;;;;5032943;28;20105;-72
2022/11/14 04:47:33;;;;;;;11.00;3.13;;;;;;;;;;5033349;28;20489;-73
2022/11/14 04:49:58;;;;;;;14.32;3.30;;;;;;;;;;5033296;28;20028;-73
2022/11/14 04:52:24;;;;;;;11.82;3.00;;;;;;;;;;5033457;28;20021;-74
2022/11/14 04:54:49;;;;;;;13.20;3.22;;;;;;;;;;5033099;28;20465;-73
2022/11/14 04:57:16;;;;;;;12.10;3.00;;;;;;;;;;5032986;28;20104;-73
2022/11/14 04:59:42;;;;;;;13.43;2.97;;;;;;;;;;5033070;28;20032;-73
2022/11/14 05:02:07;;;;;;;11.05;3.20;;;;;;;;;;5033176;28;20025;-73
2022/11/14 05:04:32;;;;;;;10.90;3.28;;;;;;;;;;5032740;28;20021;-73
2022/11/14 05:06:58;;;;;;;12.23;3.40;;;;;;;;;;5015114;28;20033;-73
2022/11/14 05:09:23;;;;;;;13.20;3.00;;;;;;;;;;5032953;28;20033;-73
2022/11/14 05:11:49;;;;;;;10.57;3.13;;;;;;;;;;5033226;28;20030;-74
2022/11/14 05:14:14;;;;;;;10.25;2.95;;;;;;;;;;5032606;28;20076;-73
2022/11/14 05:16:39;;;;;;;12.77;3.50;;;;;;;;;;5033063;28;20113;-73
2022/11/14 05:19:05;;;;;;;12.07;2.97;;;;;;;;;;5032503;28;20049;-73
2022/11/14 05:21:30;;;;;;;16.58;3.20;;;;;;;;;;5033000;28;20385;-73
2022/11/14 05:23:55;;;;;;;11.50;3.00;;;;;;;;;;5032739;28;20037;-73
2022/11/14 05:26:21;;;;;;;11.43;3.53;;;;;;;;;;5032563;28;20052;-73
2022/11/14 05:28:46;;;;;;;11.50;3.30;;;;;;;;;;5032310;28;20040;-73
2022/11/14 05:31:16;;;;;;;11.02;3.03;;;;;;;;;;5032486;28;20541;-73
2022/11/14 05:33:42;;;;;;;17.15;3.67;;;;;;;;;;5032634;28;20033;-74
2022/11/14 05:36:11;;;;;;;15.05;3.70;;;;;;;;;;5032197;28;20033;-73
2022/11/14 05:38:37;;;;;;;13.07;3.65;;;;;;;;;;5032374;28;20030;-73
2022/11/14 05:41:10;;;;;;;13.93;3.42;;;;;;;;;;5032571;28;20025;-73
2022/11/14 05:43:35;;;;;;;11.55;3.72;;;;;;;;;;5032402;28;20013;-74
2022/11/14 05:46:03;;;;;;;13.20;3.58;;;;;;;;;;5031973;28;20087;-73
2022/11/14 05:48:29;;;;;;;8.68;3.33;;;;;;;;;;5032488;28;20056;-74
2022/11/14 05:50:59;;;;;;;12.75;3.47;;;;;;;;;;5032106;28;20032;-73
2022/11/14 05:53:27;;;;;;;15.10;4.00;;;;;;;;;;5032198;28;20029;-73
2022/11/14 05:55:53;;;;;;;12.40;3.65;;;;;;;;;;5031539;28;20661;-73
2022/11/14 05:58:18;;;;;;;13.70;3.75;;;;;;;;;;5032000;28;20022;-74
2022/11/14 06:00:44;;;;;;;8.23;3.30;;;;;;;;;;5031973;28;20353;-73
2022/11/14 06:03:09;;;;;;;12.02;3.90;;;;;;;;;;5032341;28;20053;-73
2022/11/14 06:05:35;;;;;;;15.63;4.00;;;;;;;;;;5031685;28;20048;-74
2022/11/14 06:08:01;;;;;;;12.32;3.63;;;;;;;;;;5031883;28;20041;-73
2022/11/14 06:10:26;;;;;;;14.45;4.32;;;;;;;;;;5031604;28;20635;-73
2022/11/14 06:12:51;;;;;;;12.57;3.75;;;;;;;;;;5031697;28;20350;-72
2022/11/14 06:15:17;;;;;;;9.32;3.90;;;;;;;;;;5031641;28;20029;-72
2022/11/14 06:17:43;;;;;;;11.48;3.90;;;;;;;;;;5031689;28;20028;-72
2022/11/14 06:20:09;;;;;;;16.25;4.13;;;;;;;;;;5031572;28;20104;-72
2022/11/14 06:22:34;;;;;;;10.02;3.60;;;;;;;;;;5014041;28;20030;-73
2022/11/14 06:25:01;;;;;;;15.25;3.90;;;;;;;;;;5031378;28;20029;-72
2022/11/14 06:27:26;;;;;;;9.95;3.80;;;;;;;;;;5031389;28;20025;-73
2022/11/14 06:29:52;;;;;;;15.95;4.35;;;;;;;;;;5031324;28;20021;-73
2022/11/14 06:32:17;;;;;;;12.30;3.90;;;;;;;;;;5013622;28;20033;-72
2022/11/14 06:34:42;;;;;;;11.30;4.15;;;;;;;;;;5031400;28;20558;-72
2022/11/14 06:37:08;;;;;;;10.02;3.75;;;;;;;;;;5031152;28;20095;-72
2022/11/14 06:39:33;;;;;;;9.73;3.65;;;;;;;;;;5031113;28;20412;-72
2022/11/14 06:41:58;;;;;;;13.35;3.97;;;;;;;;;;5031355;28;20025;-72
2022/11/14 06:44:24;;;;;;;14.57;4.50;;;;;;;;;;5013201;28;20109;-73
2022/11/14 06:46:49;;;;;;;13.35;4.65;;;;;;;;;;5030854;28;20052;-72
2022/11/14 06:49:15;;;;;;;15.35;4.43;;;;;;;;;;5031136;28;20037;-73
2022/11/14 06:51:40;;;;;;;11.38;4.15;;;;;;;;;;5030890;28;20500;-72
2022/11/14 06:54:05;;;;;;;13.73;4.75;;;;;;;;;;5031202;28;20029;-72
2022/11/14 06:56:31;;;;;;;12.45;4.30;;;;;;;;;;5030787;28;20025;-73
2022/11/14 06:58:56;;;;;;;13.25;4.25;;;;;;;;;;5030850;28;20026;-73
2022/11/14 07:01:24;;;;;;;12.95;4.40;;;;;;;;;;5030990;28;20040;-73
2022/11/14 07:03:53;;;;;;;11.52;4.32;;;;;;;;;;5013175;28;20400;-72
2022/11/14 07:06:24;;;;;;;13.73;4.28;;;;;;;;;;5029704;28;20056;-73
2022/11/14 07:08:51;;;;;;;13.65;4.85;;;;;;;;;;5030913;28;20025;-73
2022/11/14 07:11:22;;;;;;;17.05;4.30;;;;;;;;;;5030336;28;20029;-73
2022/11/14 07:13:52;;;;;;;20.25;4.70;;;;;;;;;;5030404;28;20025;-72
2022/11/14 07:16:18;;;;;;;14.20;4.50;;;;;;;;;;5030438;28;20589;-72
2022/11/14 07:18:44;;;;;;;13.13;4.57;;;;;;;;;;5030577;28;20033;-72
2022/11/14 07:21:12;;;;;;;17.95;4.82;;;;;;;;;;5030391;28;20362;-72
2022/11/14 07:23:39;;;;;;;18.83;4.95;;;;;;;;;;5030399;28;20033;-72
2022/11/14 07:26:06;;;;;;;20.25;4.55;;;;;;;;;;5029946;28;20033;-73
2022/11/14 07:28:36;;;;;;;18.95;4.57;;;;;;;;;;5030047;28;20460;-73
2022/11/14 07:31:03;;;;;;;12.45;4.38;;;;;;;;;;5030285;28;20029;-73
2022/11/14 07:33:30;;;;;;;12.13;4.70;;;;;;;;;;5012687;28;20036;-73
2022/11/14 07:35:55;;;;;;;13.63;4.40;;;;;;;;;;5030253;28;20022;-73
2022/11/14 07:38:21;;;;;;;13.30;4.68;;;;;;;;;;5030224;28;20033;-72
2022/11/14 07:40:57;;;;;;;16.73;4.70;;;;;;;;;;5030007;28;20030;-72
2022/11/14 07:43:23;;;;;;;14.65;4.55;;;;;;;;;;5030316;28;20029;-73
2022/11/14 07:45:48;;;;;;;15.77;4.70;;;;;;;;;;5029780;28;20021;-73
2022/11/14 07:48:15;;;;;;;14.00;4.35;;;;;;;;;;5029933;28;20029;-72
2022/11/14 07:50:41;;;;;;;10.88;4.38;;;;;;;;;;5029904;28;20083;-73
2022/11/14 07:53:06;;;;;;;14.02;4.63;;;;;;;;;;5030369;28;20014;-73
2022/11/14 07:55:34;;;;;;;11.05;4.95;;;;;;;;;;5030073;28;20022;-73
2022/11/14 07:57:59;;;;;;;16.08;4.90;;;;;;;;;;5029769;28;20017;-73
2022/11/14 08:00:25;;;;;;;17.63;4.78;;;;;;;;;;5029904;28;20021;-73
2022/11/14 08:02:50;;;;;;;16.60;4.82;;;;;;;;;;5029688;28;20033;-73
2022/11/14 08:05:16;;;;;;;13.77;5.07;;;;;;;;;;5029547;28;20052;-73
2022/11/14 08:07:42;;;;;;;15.88;5.03;;;;;;;;;;5029635;28;20645;-73
2022/11/14 08:10:10;;;;;;;14.27;5.05;;;;;;;;;;5030129;28;20113;-73
2022/11/14 08:12:37;;;;;;;13.82;4.88;;;;;;;;;;5029357;28;20028;-73
2022/11/14 08:15:03;;;;;;;15.80;5.25;;;;;;;;;;5029599;28;20623;-73
2022/11/14 08:17:28;;;;;;;18.02;5.35;;;;;;;;;;5030538;28;20033;-73
2022/11/14 08:19:53;;;;;;;19.08;5.22;;;;;;;;;;5033874;28;20031;-74
2022/11/14 08:22:19;;;;;;;17.33;5.20;;;;;;;;;;5033524;28;20021;-73
2022/11/14 08:24:44;;;;;;;16.40;5.50;;;;;;;;;;5034049;28;20025;-73
2022/11/14 08:27:10;;;;;;;18.23;5.53;;;;;;;;;;5033387;28;20267;-72
2022/11/14 08:29:35;;;;;;;17.05;5.85;;;;;;;;;;5034009;28;20497;-73
2022/11/14 08:32:00;;;;;;;14.35;5.13;;;;;;;;;;5033613;28;20040;-74
2022/11/14 08:34:27;;;;;;;15.65;5.40;;;;;;;;;;5033838;28;20033;-73
2022/11/14 08:36:54;;;;;;;16.92;5.65;;;;;;;;;;5033209;28;20030;-72
2022/11/14 08:39:20;;;;;;;18.02;5.20;;;;;;;;;;5033467;28;20540;-73
2022/11/14 08:41:45;;;;;;;16.75;5.90;;;;;;;;;;5033485;28;20108;-73
2022/11/14 08:44:11;;;;;;;15.85;6.35;;;;;;;;;;5033479;28;20034;-73
2022/11/14 08:46:36;;;;;;;17.90;5.78;;;;;;;;;;5033226;28;20025;-73
2022/11/14 08:49:02;;;;;;;18.52;5.57;;;;;;;;;;5033314;28;20068;-73
2022/11/14 08:51:27;;;;;;;18.60;5.50;;;;;;;;;;5033320;28;20055;-73
2022/11/14 08:53:52;;;;;;;19.00;5.53;;;;;;;;;;5033351;28;20025;-74
2022/11/14 08:56:18;;;;;;;18.70;5.20;;;;;;;;;;5032973;28;20057;-73
2022/11/14 08:58:43;;;;;;;19.80;5.65;;;;;;;;;;5032993;28;20029;-73
2022/11/14 09:01:09;;;;;;;21.10;6.55;;;;;;;;;;5033099;28;20029;-74
2022/11/14 09:03:35;;;;;;;14.57;5.70;;;;;;;;;;5033167;28;20026;-74
2022/11/14 09:06:01;;;;;;;16.83;5.00;;;;;;;;;;5032891;28;20156;-74
2022/11/14 09:08:27;;;;;;;15.13;5.38;;;;;;;;;;5032871;28;20029;-72
2022/11/14 09:10:53;;;;;;;15.65;4.97;;;;;;;;;;5033053;28;20059;-73
2022/11/14 09:13:18;;;;;;;14.20;4.82;;;;;;;;;;5014947;28;20048;-73
2022/11/14 09:15:44;;;;;;;11.70;4.72;;;;;;;;;;5032819;28;20485;-73
2022/11/14 09:18:11;;;;;;;17.27;4.68;;;;;;;;;;5014787;28;20048;-73
2022/11/14 09:20:37;;;;;;;14.68;4.88;;;;;;;;;;5032777;28;20041;-73
2022/11/14 09:23:02;;;;;;;16.42;5.00;;;;;;;;;;5032729;28;20370;-72
2022/11/14 09:25:29;;;;;;;17.77;4.75;;;;;;;;;;5032960;28;20026;-73
2022/11/14 09:27:55;;;;;;;15.88;5.10;;;;;;;;;;5032062;28;20029;-73
2022/11/14 09:30:24;;;;;;;16.90;4.90;;;;;;;;;;5031974;28;20493;-73
2022/11/14 09:32:49;;;;;;;12.60;4.45;;;;;;;;;;5032176;28;20072;-73
2022/11/14 09:35:15;;;;;;;19.55;4.93;;;;;;;;;;5032475;28;20025;-73
2022/11/14 09:37:41;;;;;;;11.35;4.53;;;;;;;;;;5032189;28;20032;-73
2022/11/14 09:40:07;;;;;;;13.90;4.97;;;;;;;;;;5032563;28;20108;-73
2022/11/14 09:42:44;;;;;;;14.15;4.57;;;;;;;;;;5032178;28;20027;-73
2022/11/14 09:45:13;;;;;;;12.68;4.55;;;;;;;;;;5014741;28;20036;-73
2022/11/14 09:47:45;;;;;;;13.18;4.50;;;;;;;;;;5032013;28;20026;-73
2022/11/14 09:50:23;;;;;;;22.90;5.07;;;;;;;;;;5032286;28;20088;-73
2022/11/14 09:52:53;;;;;;;16.83;5.10;;;;;;;;;;5032092;28;20432;-72
2022/11/14 09:55:22;;;;;;;14.40;4.50;;;;;;;;;;5032201;28;20473;-73
2022/11/14 09:57:47;;;;;;;16.08;5.03;;;;;;;;;;5031553;28;20055;-73
2022/11/14 10:00:15;;;;;;;14.20;4.80;;;;;;;;;;5032229;28;20443;-73
2022/11/14 10:02:53;;;;;;;12.45;4.60;;;;;;;;;;5031894;28;20029;-73
2022/11/14 10:05:33;;;;;;;17.15;5.05;;;;;;;;;;5031675;28;20401;-73
2022/11/14 10:08:23;;;;;;;15.02;4.70;;;;;;;;;;5031415;28;20033;-73
2022/11/14 10:10:53;;;;;;;13.53;4.60;;;;;;;;;;5032040;28;20056;-72
2022/11/14 10:13:42;;;;;;;10.50;4.80;;;;;;;;;;5031622;28;20017;-73
2022/11/14 10:16:16;;;;;;;12.20;4.43;;;;;;;;;;5031967;28;20040;-72
2022/11/14 10:18:52;;;;;;;14.38;5.07;;;;;;;;;;5031319;28;20095;-73
2022/11/14 10:21:30;;;;;;;12.45;4.55;;;;;;;;;;5031842;28;20452;-73
2022/11/14 10:24:20;;;;;;;12.55;4.45;;;;;;;;;;5031388;28;20100;-73
2022/11/14 10:27:02;;;;;;;14.57;5.10;;;;;;;;;;5031333;28;20040;-73
2022/11/14 10:29:46;;;;;;;14.05;4.70;;;;;;;;;;5031512;28;20030;-73
2022/11/14 10:32:40;;;;;;;12.50;4.80;;;;;;;;;;5031340;28;20112;-73
2022/11/14 10:35:22;;;;;;;15.45;4.80;;;;;;;;;;5023952;28;20116;-73
2022/11/14 10:38:05;;;;;;;10.48;4.22;;;;;;;;;;5030961;28;20539;-72
2022/11/14 10:40:46;;;;;;;15.85;4.80;;;;;;;;;;5031442;28;20022;-73
2022/11/14 10:43:23;;;;;;;14.00;4.68;;;;;;;;;;5030999;28;20417;-73
2022/11/14 10:46:24;;;;;;;15.23;4.50;;;;;;;;;;5031007;28;20112;-73
2022/11/14 10:48:50;;;;;;;15.35;4.80;;;;;;;;;;5027159;28;20067;-72
2022/11/14 10:51:46;;;;;;;13.07;4.88;;;;;;;;;;5031131;28;20504;-73
2022/11/14 10:54:24;;;;;;;12.52;4.75;;;;;;;;;;5030770;28;20076;-73
2022/11/14 10:56:52;;;;;;;11.75;4.70;;;;;;;;;;5030967;28;20026;-73
2022/11/14 10:59:19;;;;;;;11.68;4.70;;;;;;;;;;5030707;28;20032;-73
2022/11/14 11:01:55;;;;;;;14.73;5.20;;;;;;;;;;5013101;28;20025;-73
2022/11/14 11:04:27;;;;;;;15.15;4.90;;;;;;;;;;5030934;28;20504;-73
2022/11/14 11:12:49;;;;;;;17.58;4.88;;;;;;;;;;5030590;28;20028;-73
2022/11/14 11:15:22;;;;;;;12.70;4.65;;;;;;;;;;5030635;28;20036;-73
2022/11/14 11:18:03;;;;;;;10.68;4.47;;;;;;;;;;5030542;28;20562;-73
2022/11/14 11:20:33;;;;;;;12.63;4.63;;;;;;;;;;5030598;28;20029;-73
2022/11/14 11:23:26;;;;;;;10.75;4.72;;;;;;;;;;5030422;28;20029;-72
2022/11/14 11:26:25;;;;;;;12.90;5.00;;;;;;;;;;5026679;28;20077;-73
2022/11/14 11:29:04;;;;;;;11.70;4.55;;;;;;;;;;5021766;28;20457;-73
2022/11/14 11:31:52;;;;;;;9.98;4.78;;;;;;;;;;5030447;28;20021;-73
2022/11/14 11:34:31;;;;;;;15.73;4.95;;;;;;;;;;5030361;28;20056;-73
2022/11/14 11:37:20;;;;;;;13.77;4.85;;;;;;;;;;5030602;28;20029;-73
2022/11/14 11:39:54;;;;;;;10.02;4.32;;;;;;;;;;5029907;28;20025;-74
2022/11/14 11:42:29;;;;;;;15.73;5.50;;;;;;;;;;5030116;28;20034;-73
2022/11/14 11:44:59;;;;;;;10.60;4.80;;;;;;;;;;5029916;28;20038;-74
2022/11/14 11:47:28;;;;;;;11.80;4.80;;;;;;;;;;5030324;28;20547;-73
2022/11/14 11:49:53;;;;;;;13.15;4.70;;;;;;;;;;5029894;28;20033;-74
2022/11/14 11:52:33;;;;;;;13.02;4.85;;;;;;;;;;5029780;28;20017;-74
2022/11/14 11:55:07;;;;;;;12.32;4.65;;;;;;;;;;5029749;28;20057;-73
2022/11/14 11:57:45;;;;;;;13.20;4.95;;;;;;;;;;5030140;28;20401;-74
2022/11/14 12:00:20;;;;;;;9.55;4.18;;;;;;;;;;5029809;28;20481;-73
2022/11/14 12:02:51;;;;;;;13.70;4.63;;;;;;;;;;5030041;28;20036;-74
2022/11/14 12:05:28;;;;;;;12.50;4.30;;;;;;;;;;5029477;28;20744;-74
2022/11/14 12:08:17;;;;;;;12.52;4.40;;;;;;;;;;5030030;28;20045;-74
2022/11/14 12:10:44;;;;;;;11.10;4.65;;;;;;;;;;5030091;28;20053;-73
2022/11/14 12:13:34;;;;;;;12.18;4.50;;;;;;;;;;5011908;28;20025;-73
2022/11/14 12:16:20;;;;;;;11.60;4.35;;;;;;;;;;5029998;28;20030;-74
2022/11/14 12:18:48;;;;;;;11.13;4.15;;;;;;;;;;5029488;28;20021;-73
2022/11/14 12:21:32;;;;;;;14.00;4.50;;;;;;;;;;5011909;28;20032;-73
2022/11/14 12:24:25;;;;;;;15.23;4.57;;;;;;;;;;5011903;28;20029;-73
2022/11/14 12:26:59;;;;;;;13.57;4.82;;;;;;;;;;5029737;28;20079;-73
2022/11/14 12:29:51;;;;;;;12.35;4.45;;;;;;;;;;5029625;28;20091;-73
2022/11/14 12:32:40;;;;;;;8.88;4.25;;;;;;;;;;5012355;28;20041;-73
2022/11/14 12:35:14;;;;;;;12.30;4.50;;;;;;;;;;5004323;28;20033;-73
2022/11/14 12:37:48;;;;;;;11.95;4.60;;;;;;;;;;5029579;28;20038;-73
2022/11/14 12:40:34;;;;;;;10.68;4.05;;;;;;;;;;5029195;28;20033;-73
2022/11/14 12:43:01;;;;;;;10.13;4.30;;;;;;;;;;5029689;28;20025;-73
2022/11/14 12:45:39;;;;;;;13.77;4.30;;;;;;;;;;5029246;28;20108;-73
2022/11/14 12:48:26;;;;;;;12.00;4.30;;;;;;;;;;5029560;28;20072;-73
2022/11/14 12:50:53;;;;;;;12.23;4.72;;;;;;;;;;5029261;28;20485;-73
2022/11/14 12:53:36;;;;;;;12.95;5.18;;;;;;;;;;5029615;28;20112;-73
2022/11/14 12:56:23;;;;;;;11.50;5.50;;;;;;;;;;5029560;28;20091;-73
2022/11/14 12:59:08;;;;;;;11.45;5.28;;;;;;;;;;5011313;28;20123;-73
2022/11/14 13:01:51;;;;;;;13.23;5.55;;;;;;;;;;5029642;28;20494;-73
2022/11/14 13:04:41;;;;;;;12.45;5.10;;;;;;;;;;5029761;28;20025;-73
2022/11/14 13:07:28;;;;;;;13.57;5.07;;;;;;;;;;5032465;28;20516;-73
2022/11/14 13:10:15;;;;;;;9.50;4.75;;;;;;;;;;5031919;28;20064;-73
2022/11/14 13:24:09;;;;;;;;;;;;;;;;;;5032267;28;20031;-73
2022/11/14 13:26:37;;;;;;;14.55;5.15;;;;;;;;;;5031998;28;19913;-73
2022/11/14 13:29:02;;;;;;;12.75;5.30;;;;;;;;;;5031454;28;20039;-73
2022/11/14 13:31:34;;;;;;;10.20;5.40;;;;;;;;;;5032182;28;20112;-73
2022/11/14 13:34:01;;;;;;;11.60;5.60;;;;;;;;;;5031892;28;20022;-73
2022/11/14 13:36:35;;;;;;;10.15;4.90;;;;;;;;;;5031942;28;20389;-73
2022/11/14 13:39:22;;;;;;;13.25;5.28;;;;;;;;;;5013908;28;20037;-73
2022/11/14 13:42:12;;;;;;;9.23;5.20;;;;;;;;;;5031710;28;20028;-73
2022/11/14 13:44:53;;;;;;;10.80;5.63;;;;;;;;;;5031434;28;20405;-73
2022/11/14 13:47:27;;;;;;;8.35;4.78;;;;;;;;;;5031666;28;20042;-73
2022/11/14 13:50:00;;;;;;;9.95;5.22;;;;;;;;;;5031418;28;20025;-73
2022/11/14 13:52:30;;;;;;;10.50;5.80;;;;;;;;;;5031584;28;20025;-73
2022/11/14 13:54:56;;;;;;;10.47;5.90;;;;;;;;;;5031616;28;20055;-75
2022/11/14 13:57:24;;;;;;;10.82;5.63;;;;;;;;;;5031257;28;20017;-72
2022/11/14 14:00:11;;;;;;;12.20;6.22;;;;;;;;;;5031108;28;20054;-74
2022/11/14 14:03:18;;;;;;;13.43;6.00;;;;;;;;;;5031239;28;20091;-74
2022/11/14 14:06:05;;;;;;;9.55;5.85;;;;;;;;;;5030826;28;20055;-74
2022/11/14 14:08:37;;;;;;;10.40;5.85;;;;;;;;;;5031221;28;20049;-73
2022/11/14 14:11:24;;;;;;;13.40;6.13;;;;;;;;;;5013154;28;20473;-74
2022/11/14 14:14:14;;;;;;;10.45;5.72;;;;;;;;;;5030908;28;20500;-74
2022/11/14 14:17:27;;;;;;;10.73;5.53;;;;;;;;;;5030805;28;20029;-73
2022/11/14 14:20:01;;;;;;;9.15;5.00;;;;;;;;;;5023123;28;20042;-73
2022/11/14 14:22:59;;;;;;;11.43;4.78;;;;;;;;;;5030959;28;20029;-73
2022/11/14 14:25:50;;;;;;;6.53;4.30;;;;;;;;;;5030821;28;20551;-73
2022/11/14 14:28:15;;;;;;;;;;;;;;;;;;5031045;28;20060;-73
2022/11/14 14:30:59;;;;;;;7.25;3.83;;;;;;;;;;5030535;28;20520;-74
2022/11/14 14:33:25;;;;;;;8.25;3.50;;;;;;;;;;5030986;28;20505;-74
2022/11/14 14:35:53;;;;;;;7.20;3.40;;;;;;;;;;5030710;28;20088;-73
2022/11/14 14:38:26;;;;;;;7.95;3.25;;;;;;;;;;5030813;28;20109;-73
2022/11/14 14:40:55;;;;;;;6.38;3.35;;;;;;;;;;5012569;28;20030;-73
2022/11/14 14:43:34;;;;;;;10.57;4.00;;;;;;;;;;5030112;28;20025;-73
2022/11/14 14:46:00;;;;;;;9.55;3.22;;;;;;;;;;5030440;28;20038;-73
2022/11/14 14:48:29;;;;;;;8.10;3.45;;;;;;;;;;5030609;28;20028;-74
2022/11/14 14:50:56;;;;;;;5.72;3.05;;;;;;;;;;5030361;28;20080;-74
2022/11/14 14:53:30;;;;;;;5.75;2.95;;;;;;;;;;5030528;28;20108;-74
2022/11/14 14:56:01;;;;;;;3.53;2.00;;;;;;;;;;5030248;28;20437;-73
2022/11/14 14:58:32;;;;;;;4.75;2.28;;;;;;;;;;5030034;28;20040;-73
2022/11/14 15:01:02;;;;;;;;;;;;;;;;;;5030154;28;20038;-74
2022/11/14 15:03:35;;;;;;;4.35;1.90;;;;;;;;;;5030044;28;19923;-74
2022/11/14 15:06:17;;;;;;;6.13;1.85;;;;;;;;;;5011861;28;20046;-73
2022/11/14 15:08:43;;;;;;;3.92;2.08;;;;;;;;;;5030297;28;20388;-73
2022/11/14 15:11:09;;;;;;;3.95;1.92;;;;;;;;;;5011978;28;20033;-74